M/y A.b.normal — 2DLI6 — position and weather

sailwx.info

Track history (hours):
 
Tides and Currents Weather Stations Pressure Air Temp Water Temp Dewpoint Dewpoint Depression Visibility Wind Speed Wind Dir Waves Ship Positions

M/y A.b.normal

Last reported at 2016-Jun-27 12:33 UTC. Time now 2016-Jun-28 09:48 UTC.
Position N 40°36' E 014°31'.

Length 28 m; draft 2.8 m.

Type: Pleasure craft. MMSI: 235079977.

Date/timePositionNaut miles runAvg speedWind from/ knotsBaromVisibWave heightAir tempDewpointWater temp
2016-Jun-27 12:33N 40°36' E 014°31'8 0.5
2016-Jun-26 20:11N 40°35' E 014°21'0 0.0
2016-Jun-26 19:19N 40°35' E 014°21'0 0.0
2016-Jun-26 17:23N 40°35' E 014°21'0 0.0
2016-Jun-26 16:31N 40°35' E 014°21'0 0.0
2016-Jun-26 11:33N 40°35' E 014°21'2 2.2
2016-Jun-26 10:32N 40°36' E 014°19'4 4.0
2016-Jun-26 09:33N 40°38' E 014°24'0 0.0
2016-Jun-25 22:32N 40°38' E 014°24'0 0.0
2016-Jun-25 21:15N 40°38' E 014°24'0 0.0
2016-Jun-25 20:33N 40°38' E 014°24'0 0.0
2016-Jun-25 19:33N 40°38' E 014°24'0 0.0
2016-Jun-25 17:27N 40°38' E 014°24'0 0.0
2016-Jun-25 16:33N 40°38' E 014°24'5 4.6
2016-Jun-25 15:32N 40°36' E 014°19'6 1.9
2016-Jun-25 12:32N 40°35' E 014°26'  
2016-Jun-22 20:21N 40°34' E 014°14'0 0.0
2016-Jun-22 19:33N 40°34' E 014°14'0 0.0
2016-Jun-22 18:33N 40°34' E 014°14'0 0.0
2016-Jun-22 17:33N 40°34' E 014°14'14 2.3
2016-Jun-22 11:18N 40°43' E 014°28'0 0.0
2016-Jun-22 10:33N 40°43' E 014°28'0 0.0
2016-Jun-22 09:33N 40°43' E 014°28'0 0.0
2016-Jun-21 20:19N 40°43' E 014°28'0 0.0
2016-Jun-21 19:33N 40°43' E 014°28'0 0.0
2016-Jun-21 18:33N 40°43' E 014°28'0 0.0
2016-Jun-21 17:33N 40°43' E 014°28'0 0.0
2016-Jun-21 16:33N 40°43' E 014°28'0 0.0
2016-Jun-21 12:24N 40°43' E 014°28'0 0.0
2016-Jun-21 11:33N 40°43' E 014°28'0 0.0
2016-Jun-21 10:32N 40°43' E 014°28'0 0.0
2016-Jun-21 09:33N 40°43' E 014°28'0 0.0
2016-Jun-20 20:11N 40°43' E 014°28'0 0.0
2016-Jun-20 19:33N 40°43' E 014°28'0 0.0
2016-Jun-20 18:33N 40°43' E 014°28'0 0.0
2016-Jun-20 13:07N 40°43' E 014°28'0 0.0
2016-Jun-20 12:33N 40°43' E 014°28'5 5.1
2016-Jun-20 11:33N 40°40' E 014°23'9 9.1
2016-Jun-20 10:33N 40°33' E 014°15'0 0.0
2016-Jun-19 19:21N 40°33' E 014°15'0 0.0
2016-Jun-19 14:23N 40°33' E 014°15'0 0.0
2016-Jun-19 13:33N 40°33' E 014°15'0 0.0
2016-Jun-19 12:33N 40°33' E 014°15'0 0.0
2016-Jun-19 11:33N 40°33' E 014°15'0 0.0
2016-Jun-19 10:33N 40°33' E 014°15'0 0.0
2016-Jun-19 09:33N 40°33' E 014°15'0 0.0
2016-Jun-19 08:33N 40°33' E 014°15'0 0.0
2016-Jun-19 07:33N 40°33' E 014°15'0 0.0
2016-Jun-19 06:33N 40°33' E 014°15'0 0.0
2016-Jun-19 05:33N 40°33' E 014°15'0 0.0
2016-Jun-19 04:33N 40°33' E 014°15'0 0.0
2016-Jun-19 03:33N 40°33' E 014°15'0 0.0
2016-Jun-19 02:33N 40°33' E 014°15'0 0.0
2016-Jun-19 01:33N 40°33' E 014°15'0 0.0
2016-Jun-19 00:33N 40°33' E 014°15'0 0.0
2016-Jun-18 23:33N 40°33' E 014°15'0 0.0
2016-Jun-18 22:33N 40°33' E 014°15'0 0.0
2016-Jun-18 21:33N 40°33' E 014°15'0 0.0
2016-Jun-18 20:33N 40°33' E 014°15'0 0.0
2016-Jun-18 19:33N 40°33' E 014°15'0 0.0
2016-Jun-18 18:33N 40°33' E 014°15'0 0.0
2016-Jun-18 17:33N 40°33' E 014°15'0 0.0
2016-Jun-18 16:33N 40°33' E 014°15'0 0.0
2016-Jun-18 15:33N 40°33' E 014°15'0 0.0
2016-Jun-18 14:33N 40°33' E 014°15'1 0.8
2016-Jun-18 13:33N 40°33' E 014°15'0 0.0
2016-Jun-18 12:31N 40°33' E 014°15'0 0.0
2016-Jun-18 11:32N 40°33' E 014°15'0 0.0
2016-Jun-18 10:33N 40°33' E 014°15'0 0.0
2016-Jun-18 03:33N 40°33' E 014°15'0 0.0
2016-Jun-18 02:33N 40°33' E 014°15'0 0.0
2016-Jun-18 01:34N 40°33' E 014°15'0 0.0
2016-Jun-18 00:33N 40°33' E 014°15'0 0.0
2016-Jun-17 23:23N 40°33' E 014°15'0 0.0
2016-Jun-17 22:34N 40°33' E 014°15'0 0.0
2016-Jun-17 21:33N 40°33' E 014°15'0 0.0
2016-Jun-17 20:30N 40°33' E 014°15'0 0.0
2016-Jun-17 19:32N 40°33' E 014°15'0 0.0
2016-Jun-17 18:34N 40°33' E 014°15'2 0.8
2016-Jun-17 16:24N 40°32' E 014°17'4 1.3
2016-Jun-17 13:23N 40°35' E 014°21'  
Track history (hours):
 
Tides and Currents Weather Stations Pressure Air Temp Water Temp Dewpoint Dewpoint Depression Visibility Wind Speed Wind Dir Waves Ship Positions

M/y A.b.normal

Last reported at 2016-Jun-27 12:33 UTC. Time now 2016-Jun-28 09:48 UTC.
Position N 40°36' E 014°31'.

Length 28 m; draft 2.8 m.

Type: Pleasure craft. MMSI: 235079977.

Date/timePositionNaut miles runAvg speedWind from/ knotsBaromVisibWave heightAir tempDewpointWater temp
2016-Jun-27 12:33N 40°36' E 014°31'8 0.5
2016-Jun-26 20:11N 40°35' E 014°21'0 0.0
2016-Jun-26 19:19N 40°35' E 014°21'0 0.0
2016-Jun-26 17:23N 40°35' E 014°21'0 0.0
2016-Jun-26 16:31N 40°35' E 014°21'0 0.0
2016-Jun-26 11:33N 40°35' E 014°21'2 2.2
2016-Jun-26 10:32N 40°36' E 014°19'4 4.0
2016-Jun-26 09:33N 40°38' E 014°24'0 0.0
2016-Jun-25 22:32N 40°38' E 014°24'0 0.0
2016-Jun-25 21:15N 40°38' E 014°24'0 0.0
2016-Jun-25 20:33N 40°38' E 014°24'0 0.0
2016-Jun-25 19:33N 40°38' E 014°24'0 0.0
2016-Jun-25 17:27N 40°38' E 014°24'0 0.0
2016-Jun-25 16:33N 40°38' E 014°24'5 4.6
2016-Jun-25 15:32N 40°36' E 014°19'6 1.9
2016-Jun-25 12:32N 40°35' E 014°26'  
2016-Jun-22 20:21N 40°34' E 014°14'0 0.0
2016-Jun-22 19:33N 40°34' E 014°14'0 0.0
2016-Jun-22 18:33N 40°34' E 014°14'0 0.0
2016-Jun-22 17:33N 40°34' E 014°14'14 2.3
2016-Jun-22 11:18N 40°43' E 014°28'0 0.0
2016-Jun-22 10:33N 40°43' E 014°28'0 0.0
2016-Jun-22 09:33N 40°43' E 014°28'0 0.0
2016-Jun-21 20:19N 40°43' E 014°28'0 0.0
2016-Jun-21 19:33N 40°43' E 014°28'0 0.0
2016-Jun-21 18:33N 40°43' E 014°28'0 0.0
2016-Jun-21 17:33N 40°43' E 014°28'0 0.0
2016-Jun-21 16:33N 40°43' E 014°28'0 0.0
2016-Jun-21 12:24N 40°43' E 014°28'0 0.0
2016-Jun-21 11:33N 40°43' E 014°28'0 0.0
2016-Jun-21 10:32N 40°43' E 014°28'0 0.0
2016-Jun-21 09:33N 40°43' E 014°28'0 0.0
2016-Jun-20 20:11N 40°43' E 014°28'0 0.0
2016-Jun-20 19:33N 40°43' E 014°28'0 0.0
2016-Jun-20 18:33N 40°43' E 014°28'0 0.0
2016-Jun-20 13:07N 40°43' E 014°28'0 0.0
2016-Jun-20 12:33N 40°43' E 014°28'5 5.1
2016-Jun-20 11:33N 40°40' E 014°23'9 9.1
2016-Jun-20 10:33N 40°33' E 014°15'0 0.0
2016-Jun-19 19:21N 40°33' E 014°15'0 0.0
2016-Jun-19 14:23N 40°33' E 014°15'0 0.0
2016-Jun-19 13:33N 40°33' E 014°15'0 0.0
2016-Jun-19 12:33N 40°33' E 014°15'0 0.0
2016-Jun-19 11:33N 40°33' E 014°15'0 0.0
2016-Jun-19 10:33N 40°33' E 014°15'0 0.0
2016-Jun-19 09:33N 40°33' E 014°15'0 0.0
2016-Jun-19 08:33N 40°33' E 014°15'0 0.0
2016-Jun-19 07:33N 40°33' E 014°15'0 0.0
2016-Jun-19 06:33N 40°33' E 014°15'0 0.0
2016-Jun-19 05:33N 40°33' E 014°15'0 0.0
2016-Jun-19 04:33N 40°33' E 014°15'0 0.0
2016-Jun-19 03:33N 40°33' E 014°15'0 0.0
2016-Jun-19 02:33N 40°33' E 014°15'0 0.0
2016-Jun-19 01:33N 40°33' E 014°15'0 0.0
2016-Jun-19 00:33N 40°33' E 014°15'0 0.0
2016-Jun-18 23:33N 40°33' E 014°15'0 0.0
2016-Jun-18 22:33N 40°33' E 014°15'0 0.0
2016-Jun-18 21:33N 40°33' E 014°15'0 0.0
2016-Jun-18 20:33N 40°33' E 014°15'0 0.0
2016-Jun-18 19:33N 40°33' E 014°15'0 0.0
2016-Jun-18 18:33N 40°33' E 014°15'0 0.0
2016-Jun-18 17:33N 40°33' E 014°15'0 0.0
2016-Jun-18 16:33N 40°33' E 014°15'0 0.0
2016-Jun-18 15:33N 40°33' E 014°15'0 0.0
2016-Jun-18 14:33N 40°33' E 014°15'1 0.8
2016-Jun-18 13:33N 40°33' E 014°15'0 0.0
2016-Jun-18 12:31N 40°33' E 014°15'0 0.0
2016-Jun-18 11:32N 40°33' E 014°15'0 0.0
2016-Jun-18 10:33N 40°33' E 014°15'0 0.0
2016-Jun-18 03:33N 40°33' E 014°15'0 0.0
2016-Jun-18 02:33N 40°33' E 014°15'0 0.0
2016-Jun-18 01:34N 40°33' E 014°15'0 0.0
2016-Jun-18 00:33N 40°33' E 014°15'0 0.0
2016-Jun-17 23:23N 40°33' E 014°15'0 0.0
2016-Jun-17 22:34N 40°33' E 014°15'0 0.0
2016-Jun-17 21:33N 40°33' E 014°15'0 0.0
2016-Jun-17 20:30N 40°33' E 014°15'0 0.0
2016-Jun-17 19:32N 40°33' E 014°15'0 0.0
2016-Jun-17 18:34N 40°33' E 014°15'2 0.8
2016-Jun-17 16:24N 40°32' E 014°17'4 1.3
2016-Jun-17 13:23N 40°35' E 014°21'  

Dump ship's entire track history